Terminal Aerodrome Forecast
Issued by NWS Milwaukee/Sullivan, WI

Home | Current Version | Previous Version | Text Only | Print | Product List | Glossary On
Versions: 1 2 3 4 5 6 7 8 9 10 11 12 13 14 15 16 17 18 19 20 21 22 23 24 25 26 27 28 29 30 31 32 33 34 35 36 37
000
FTUS43 KMKX 231938 AAA
TAFMSN
TAF AMD
KMSN 231938Z 2320/2418 19007KT 6SM -SHRA OVC035
     FM232100 20007KT P6SM VCSH OVC035
     FM240000 20005KT P6SM OVC030
     FM240200 VRB03KT 5SM BR OVC020
     FM240900 VRB03KT 4SM BR OVC005
     FM241500 20004KT P6SM SCT005=

USA.gov is the U.S. government's official web portal to all federal, state and local government web resources and services.